31NY weather

Troop E Heliport
Canandaigua, New York, United States

Public forecast

Using degrees Fahrenheit for public forecast. Weather courtesy of forecast.io.

METAR (pilot weather report)

Closest report is Greater Rochester International Airport, 17.6 nm (32.6 km) WNW. Retrieved 2019/05/27 11:54 UTC (48 minutes ago):

KROC 271154Z 30005KT 10SM SCT070 SCT250 15/09 A3005 RMK AO2 SLP179 T01500094 10150 20100 53022

TAF (pilot weather forecast)

Closest forecast is Greater Rochester International Airport, 17.6 nm (32.6 km) WNW. Retrieved 2019/05/27 12:22 UTC (20 minutes ago):

TAF KROC 271120Z 2712/2812 27005KT P6SM FEW250 FM271400 30004KT P6SM FEW250 FM271700 33006KT P6SM FEW250 FM280200 08006KT P6SM BKN100 FM280900 09007KT P6SM VCSH OVC060